Accueil
METAR-TAF:

METAR-TAF

Aéroports :

Aéroport international de Sunan

Pyongyang, Corée du Nord

latitude: 39-02N, longitude: 125-47E, altitude: 36 m

METAR: absent

Heure: 14:57 (06:27 UTC)

Prévision

Le bulletin a été fait il y a 2 heures et 27 minutes, à 04:00 UTC
Prévision valable du 21 à 06 UTC au 22 à 06 UTC
Vent 8 kt de nord
Visibilité: 6000 m

TAF: ZKPY 210400Z 2106/2206 36004MPS 6000 NSC TX27/2106Z TN18/2122Z

Observations et prévisions météorologiques de plus de 4000 aéroports (messages METAR et TAF).

Les stations disponibles sont représentées par des disques jaunes et rouges sur la carte.

Passer la souris dessus pour voir le nom de la station.

Cliquer dessus pour voir les observations et prévisions météorologiques.

Pour changer de carte: cliquez sur les boutons verts avec une croix noire pour zoomer, sur le bouton vert avec un tiret pour effectuer un zoom arrière, ou sur les flèches vertes pour les cartes adjacentes.


METAR-TAF: